Time;durP1;ratioP1;P1;durP2;ratioP2;P2;SDS_P1;SDS_P2;PMS_P1;PMS_P2;Temp;Humidity;BMP_temperature;BMP_pressure;BME280_temperature;BME280_humidity;BME280_pressure;Samples;Min_cycle;Max_cycle;Signal;HPM_P1;HPM_P2
2023/11/30 00:02:14;;;;;;;11.15;8.00;;;0.40;99.90;;;;;;5097101;28;20032;-67
2023/11/30 00:04:40;;;;;;;10.93;9.25;;;0.50;99.90;;;;;;5095383;28;20040;-67
2023/11/30 00:07:11;;;;;;;12.27;8.35;;;0.50;99.90;;;;;;5096299;28;20103;-67
2023/11/30 00:09:37;;;;;;;10.45;8.38;;;0.40;99.90;;;;;;5098383;28;20039;-67
2023/11/30 00:12:06;;;;;;;11.48;9.32;;;0.40;99.90;;;;;;5132073;27;20044;-67
2023/11/30 00:14:32;;;;;;;10.18;8.07;;;0.40;99.90;;;;;;5101677;28;20122;-67
2023/11/30 00:16:57;;;;;;;12.77;9.77;;;0.40;99.90;;;;;;5097238;28;20126;-68
2023/11/30 00:19:23;;;;;;;10.25;9.10;;;0.40;99.90;;;;;;5098389;27;20119;-67
2023/11/30 00:21:49;;;;;;;11.75;9.40;;;0.40;99.90;;;;;;5097097;28;20080;-67
2023/11/30 00:24:14;;;;;;;10.90;9.23;;;0.40;99.90;;;;;;5129063;27;20044;-67
2023/11/30 00:26:40;;;;;;;10.68;8.68;;;0.30;99.90;;;;;;5098463;28;20501;-67
2023/11/30 00:29:05;;;;;;;9.82;8.18;;;0.40;99.90;;;;;;5097429;28;20032;-68
2023/11/30 00:31:31;;;;;;;9.43;8.15;;;0.30;99.90;;;;;;5095853;28;20582;-67
2023/11/30 00:33:57;;;;;;;12.13;9.85;;;0.40;99.90;;;;;;5099976;27;20077;-67
2023/11/30 00:36:22;;;;;;;12.63;9.80;;;0.30;99.90;;;;;;5129859;27;20701;-67
2023/11/30 00:38:48;;;;;;;13.25;9.52;;;0.30;99.90;;;;;;5096522;28;20063;-67
2023/11/30 00:41:15;;;;;;;13.32;10.18;;;0.30;99.90;;;;;;5101360;28;20042;-67
2023/11/30 00:43:40;;;;;;;13.00;8.68;;;0.30;99.90;;;;;;5097483;28;20063;-67
2023/11/30 00:46:08;;;;;;;10.25;8.02;;;0.30;99.90;;;;;;5099599;28;20064;-67
2023/11/30 00:48:34;;;;;;;13.88;9.48;;;0.30;99.90;;;;;;5097343;28;20089;-67
2023/11/30 00:51:00;;;;;;;11.98;9.60;;;0.30;99.90;;;;;;5099441;28;20071;-67
2023/11/30 00:53:25;;;;;;;14.55;10.30;;;0.10;99.90;;;;;;5099363;28;20048;-67
2023/11/30 00:55:51;;;;;;;16.55;10.60;;;0.20;99.90;;;;;;5098061;27;20071;-67
2023/11/30 00:58:16;;;;;;;14.27;9.40;;;0.20;99.90;;;;;;5095329;28;20043;-67
2023/11/30 01:00:42;;;;;;;10.65;8.75;;;0.20;99.90;;;;;;5097988;28;20478;-67
2023/11/30 01:03:07;;;;;;;9.05;7.53;;;0.10;99.90;;;;;;5096660;28;20039;-67
2023/11/30 01:05:33;;;;;;;13.63;8.27;;;0.10;99.90;;;;;;5098672;28;20122;-67
2023/11/30 01:07:59;;;;;;;12.07;7.70;;;0.00;99.90;;;;;;5100328;28;20039;-67
2023/11/30 01:10:24;;;;;;;12.13;7.65;;;0.00;99.90;;;;;;5100182;28;20085;-67
2023/11/30 01:12:50;;;;;;;17.88;9.65;;;0.00;99.90;;;;;;5133752;27;20043;-67
2023/11/30 01:15:16;;;;;;;10.93;8.50;;;-0.10;99.90;;;;;;5096336;27;20131;-67
2023/11/30 01:17:41;;;;;;;11.18;7.82;;;0.30;99.90;;;;;;5094840;27;20047;-67
2023/11/30 01:20:08;;;;;;;13.23;7.13;;;-0.10;99.90;;;;;;5132294;27;20040;-67
2023/11/30 01:22:34;;;;;;;9.70;7.60;;;-0.10;99.90;;;;;;5132393;27;20657;-67
2023/11/30 01:25:00;;;;;;;9.98;7.45;;;-0.10;99.90;;;;;;5099626;28;20082;-67
2023/11/30 01:27:25;;;;;;;16.23;8.93;;;-0.10;99.90;;;;;;5100593;28;20067;-67
2023/11/30 01:29:51;;;;;;;11.38;7.50;;;-0.10;99.90;;;;;;5100023;27;20081;-68
2023/11/30 01:32:17;;;;;;;11.88;8.20;;;0.00;99.90;;;;;;5126799;27;20039;-67
2023/11/30 01:34:42;;;;;;;10.95;8.77;;;0.00;99.90;;;;;;5100633;28;20111;-67
2023/11/30 01:37:08;;;;;;;28.50;10.15;;;0.00;99.90;;;;;;5098687;28;20134;-67
2023/11/30 01:39:34;;;;;;;83.55;10.35;;;0.00;99.90;;;;;;5099736;28;20163;-67
2023/11/30 01:41:59;;;;;;;154.93;11.63;;;0.00;99.90;;;;;;5100016;27;20044;-67
2023/11/30 01:44:25;;;;;;;160.27;11.68;;;0.00;99.90;;;;;;5096183;28;20044;-67
2023/11/30 01:46:50;;;;;;;140.18;11.20;;;0.10;99.90;;;;;;5097412;28;20051;-67
2023/11/30 01:49:16;;;;;;;134.60;11.02;;;0.10;99.90;;;;;;5096745;28;20036;-67
2023/11/30 01:51:42;;;;;;;134.35;10.40;;;0.00;99.90;;;;;;5096547;28;20047;-67
2023/11/30 01:54:08;;;;;;;169.73;11.35;;;0.00;99.90;;;;;;5100796;28;20093;-67
2023/11/30 01:56:37;;;;;;;132.38;10.13;;;0.00;99.90;;;;;;5097645;28;20032;-67
2023/11/30 01:59:03;;;;;;;133.82;9.95;;;-0.10;99.90;;;;;;5132595;27;20036;-67
2023/11/30 02:01:30;;;;;;;183.45;11.43;;;-0.10;99.90;;;;;;5099030;28;20044;-68
2023/11/30 02:03:56;;;;;;;112.25;8.38;;;-0.20;99.90;;;;;;5095522;28;20068;-68
2023/11/30 02:06:22;;;;;;;123.63;8.15;;;-0.30;99.90;;;;;;5098597;28;20043;-68
2023/11/30 02:08:47;;;;;;;87.05;7.35;;;-0.40;99.90;;;;;;5099685;28;20043;-67
2023/11/30 02:11:13;;;;;;;129.18;10.32;;;-0.40;99.90;;;;;;5133907;27;20043;-67
2023/11/30 02:13:39;;;;;;;83.57;8.05;;;-0.30;99.90;;;;;;5100089;28;20047;-68
2023/11/30 02:16:05;;;;;;;106.57;8.65;;;-0.30;99.90;;;;;;5099387;28;20040;-68
2023/11/30 02:18:31;;;;;;;87.78;8.45;;;-0.30;99.90;;;;;;5082420;28;20122;-68
2023/11/30 02:20:56;;;;;;;77.43;8.15;;;-0.40;99.90;;;;;;5128473;27;20472;-67
2023/11/30 02:23:22;;;;;;;66.28;8.23;;;-0.40;99.90;;;;;;5131632;27;20035;-67
2023/11/30 02:25:48;;;;;;;71.25;7.45;;;-0.40;99.90;;;;;;5132218;27;20498;-67
2023/11/30 02:28:19;;;;;;;74.13;7.93;;;-0.40;99.90;;;;;;5096516;28;20035;-67
2023/11/30 02:30:49;;;;;;;62.03;7.25;;;-0.40;99.90;;;;;;5094484;28;20481;-67
2023/11/30 02:33:15;;;;;;;98.50;8.32;;;-0.40;99.90;;;;;;5098003;28;20054;-67
2023/11/30 02:35:41;;;;;;;111.70;8.48;;;-0.40;99.90;;;;;;5101155;27;20059;-67
2023/11/30 02:38:06;;;;;;;66.13;7.10;;;-0.40;99.90;;;;;;5103299;28;20581;-68
2023/11/30 02:40:32;;;;;;;46.08;6.93;;;-0.40;99.90;;;;;;5099732;28;20066;-68
2023/11/30 02:42:57;;;;;;;45.13;7.10;;;-0.40;99.90;;;;;;5133880;27;20039;-68
2023/11/30 02:45:23;;;;;;;104.32;8.85;;;-0.40;99.90;;;;;;5099622;28;20032;-67
2023/11/30 02:47:49;;;;;;;75.65;7.00;;;-0.40;99.90;;;;;;5102576;28;20116;-67
2023/11/30 02:50:14;;;;;;;57.63;6.43;;;-0.40;99.90;;;;;;5133650;27;20047;-67
2023/11/30 02:52:41;;;;;;;55.58;6.55;;;-0.50;99.90;;;;;;5133908;27;20254;-67
2023/11/30 02:55:07;;;;;;;81.55;7.10;;;-0.50;99.90;;;;;;5101656;28;20058;-67
2023/11/30 02:57:33;;;;;;;61.05;7.00;;;-0.40;99.90;;;;;;5103458;27;20035;-67
2023/11/30 02:59:59;;;;;;;88.63;7.75;;;-0.50;99.90;;;;;;5098787;28;20077;-67
2023/11/30 03:02:25;;;;;;;49.60;7.43;;;-0.40;99.90;;;;;;5099124;28;20152;-68
2023/11/30 03:04:50;;;;;;;85.15;7.20;;;-0.50;99.90;;;;;;5133300;27;20048;-67
2023/11/30 03:07:16;;;;;;;79.90;7.30;;;-0.50;99.90;;;;;;5102193;28;20048;-67
2023/11/30 03:09:41;;;;;;;62.10;7.25;;;-0.50;99.90;;;;;;5097067;28;20040;-67
2023/11/30 03:12:07;;;;;;;52.42;7.15;;;-0.50;99.90;;;;;;5098698;27;20173;-67
2023/11/30 03:14:33;;;;;;;29.75;6.50;;;-0.50;99.90;;;;;;5132720;27;20044;-67
2023/11/30 03:16:58;;;;;;;56.25;6.07;;;-0.60;99.90;;;;;;5103662;28;20043;-68
2023/11/30 03:19:24;;;;;;;39.65;6.43;;;-0.60;99.90;;;;;;5132872;27;20036;-67
2023/11/30 03:21:51;;;;;;;75.78;6.78;;;-0.80;99.90;;;;;;5098555;28;20050;-67
2023/11/30 03:24:17;;;;;;;50.25;7.00;;;-0.70;99.90;;;;;;5097220;28;20073;-67
2023/11/30 03:26:43;;;;;;;33.17;7.28;;;-0.70;99.90;;;;;;5103928;28;20047;-68
2023/11/30 03:29:09;;;;;;;33.45;6.53;;;-0.80;99.90;;;;;;5132743;27;20036;-67
2023/11/30 03:31:35;;;;;;;38.10;7.47;;;-0.90;99.90;;;;;;5099727;28;20029;-67
2023/11/30 03:34:00;;;;;;;26.95;6.82;;;-0.90;99.90;;;;;;5134979;27;20559;-67
2023/11/30 03:36:26;;;;;;;29.88;6.90;;;-0.90;99.90;;;;;;5115585;27;20028;-67
2023/11/30 03:38:53;;;;;;;52.20;7.47;;;-0.80;99.90;;;;;;5102363;27;20043;-67
2023/11/30 03:41:20;;;;;;;37.85;6.53;;;-0.90;99.90;;;;;;5098450;28;20036;-67
2023/11/30 03:43:47;;;;;;;39.78;7.38;;;-0.90;99.90;;;;;;5101851;28;20047;-67
2023/11/30 03:46:12;;;;;;;34.45;6.68;;;-0.90;99.90;;;;;;5100824;28;20032;-67
2023/11/30 03:48:38;;;;;;;62.45;7.43;;;-0.90;99.90;;;;;;5098918;28;20058;-67
2023/11/30 03:51:04;;;;;;;42.75;7.45;;;-0.90;99.90;;;;;;5134039;27;20481;-67
2023/11/30 03:53:29;;;;;;;31.83;5.97;;;-0.90;99.90;;;;;;5083793;28;20039;-67
2023/11/30 03:55:55;;;;;;;40.85;6.75;;;-1.00;99.90;;;;;;5132962;27;20043;-67
2023/11/30 03:58:21;;;;;;;35.30;6.85;;;-1.00;99.90;;;;;;5132888;27;20044;-67
2023/11/30 04:00:46;;;;;;;10.85;6.25;;;-1.00;99.90;;;;;;5098287;27;20478;-67
2023/11/30 04:03:12;;;;;;;16.65;6.40;;;-1.00;99.90;;;;;;5131337;27;20126;-67
2023/11/30 04:05:38;;;;;;;32.55;6.25;;;-0.90;99.90;;;;;;5099420;28;20116;-68
2023/11/30 04:08:03;;;;;;;24.20;6.25;;;-0.90;99.90;;;;;;5102164;28;20043;-68
2023/11/30 04:10:29;;;;;;;36.28;6.28;;;-0.90;99.90;;;;;;5098741;28;20035;-67
2023/11/30 04:12:54;;;;;;;24.15;6.53;;;-0.80;99.90;;;;;;5099354;28;20036;-67
2023/11/30 04:15:20;;;;;;;29.27;6.63;;;-0.90;99.90;;;;;;5099559;28;20082;-67
2023/11/30 04:17:46;;;;;;;87.53;7.05;;;-0.80;99.90;;;;;;5100895;28;20397;-67
2023/11/30 04:20:11;;;;;;;92.97;7.15;;;-0.80;99.90;;;;;;5134646;27;20131;-67
2023/11/30 04:22:37;;;;;;;71.60;6.85;;;-0.80;99.90;;;;;;5099448;28;20051;-68
2023/11/30 04:25:03;;;;;;;86.45;8.50;;;-0.80;99.90;;;;;;5100067;28;20562;-68
2023/11/30 04:27:28;;;;;;;52.47;6.78;;;-0.70;99.90;;;;;;5099273;28;20549;-67
2023/11/30 04:29:54;;;;;;;48.17;6.18;;;-0.80;99.90;;;;;;5101776;28;20066;-68
2023/11/30 04:32:20;;;;;;;32.53;6.15;;;-0.70;99.90;;;;;;5100827;27;20504;-67
2023/11/30 04:34:45;;;;;;;47.60;6.72;;;-0.70;99.90;;;;;;5099587;28;20140;-67
2023/11/30 04:37:11;;;;;;;37.53;6.53;;;-0.70;99.90;;;;;;5099010;28;20803;-67
2023/11/30 04:39:37;;;;;;;72.47;6.68;;;-0.70;99.90;;;;;;5101432;28;20042;-68
2023/11/30 04:42:03;;;;;;;61.75;6.35;;;-0.70;99.90;;;;;;5099963;28;20097;-68
2023/11/30 04:44:29;;;;;;;59.92;6.95;;;-0.50;99.90;;;;;;5099300;28;20040;-68
2023/11/30 04:46:54;;;;;;;54.00;6.50;;;-0.70;99.90;;;;;;5094680;28;20024;-68
2023/11/30 04:49:20;;;;;;;30.85;6.72;;;-0.80;99.90;;;;;;5101964;28;20509;-68
2023/11/30 04:51:46;;;;;;;95.35;6.93;;;-0.80;99.90;;;;;;5096835;28;20039;-68
2023/11/30 04:54:11;;;;;;;99.35;6.47;;;-0.80;99.90;;;;;;5101951;28;20036;-68
2023/11/30 04:56:37;;;;;;;120.55;6.22;;;-0.80;99.90;;;;;;5128886;27;20388;-68
2023/11/30 04:59:03;;;;;;;79.30;6.72;;;-0.70;99.90;;;;;;5100295;28;20576;-67
2023/11/30 05:01:30;;;;;;;88.70;6.78;;;-0.80;99.90;;;;;;5094343;27;20036;-68
2023/11/30 05:03:57;;;;;;;59.65;5.85;;;-0.80;99.90;;;;;;5096408;28;20035;-68
2023/11/30 05:06:23;;;;;;;74.63;6.18;;;-1.00;99.90;;;;;;5096782;28;20044;-68
2023/11/30 05:08:49;;;;;;;50.65;6.65;;;-0.90;99.90;;;;;;5097759;28;20493;-68
2023/11/30 05:11:15;;;;;;;70.90;5.50;;;-0.90;99.90;;;;;;5097984;28;20066;-67
2023/11/30 05:13:41;;;;;;;71.05;5.38;;;-0.90;99.90;;;;;;5097422;28;20386;-67
2023/11/30 05:16:07;;;;;;;89.47;7.30;;;-0.90;99.90;;;;;;5097008;28;20032;-68
2023/11/30 05:18:33;;;;;;;50.03;5.82;;;-0.80;99.90;;;;;;5130078;27;20096;-68
2023/11/30 05:20:58;;;;;;;52.83;6.30;;;-0.80;99.90;;;;;;5132051;27;20481;-68
2023/11/30 05:23:24;;;;;;;90.97;7.28;;;-0.70;99.90;;;;;;5132252;27;20063;-67
2023/11/30 05:25:50;;;;;;;92.32;6.95;;;-0.70;99.90;;;;;;5132102;27;20158;-67
2023/11/30 05:28:16;;;;;;;123.63;8.43;;;-0.70;99.90;;;;;;5131849;27;20044;-67
2023/11/30 05:30:42;;;;;;;45.38;6.70;;;-0.70;99.90;;;;;;5096861;28;20067;-67
2023/11/30 05:33:07;;;;;;;46.28;6.13;;;-0.60;99.90;;;;;;5132306;27;20098;-67
2023/11/30 05:35:34;;;;;;;37.60;6.30;;;-0.60;99.90;;;;;;5095791;28;20043;-67
2023/11/30 05:38:00;;;;;;;99.88;8.60;;;-0.50;99.90;;;;;;5096652;28;20489;-67
2023/11/30 05:40:26;;;;;;;88.15;8.00;;;-0.50;99.90;;;;;;5094829;28;20110;-67
2023/11/30 05:42:52;;;;;;;60.92;7.80;;;-0.50;99.90;;;;;;5098318;28;20036;-68
2023/11/30 05:45:18;;;;;;;37.97;6.82;;;-0.50;99.90;;;;;;5127321;27;20036;-68
2023/11/30 05:47:43;;;;;;;26.88;7.30;;;-0.40;99.90;;;;;;5097025;27;20101;-68
2023/11/30 05:50:09;;;;;;;36.55;8.18;;;-0.40;99.90;;;;;;5095902;28;20043;-67
2023/11/30 05:52:35;;;;;;;32.15;7.07;;;-0.40;99.90;;;;;;5084442;28;20032;-68
2023/11/30 05:55:03;;;;;;;22.08;6.78;;;-0.40;99.90;;;;;;5099586;28;20043;-68
2023/11/30 05:57:29;;;;;;;67.00;8.90;;;-0.40;99.90;;;;;;5099243;28;20488;-67
2023/11/30 05:59:55;;;;;;;41.28;7.95;;;-0.40;99.90;;;;;;5132067;27;20095;-68
2023/11/30 06:02:22;;;;;;;48.30;8.07;;;-0.40;99.90;;;;;;5099668;28;20043;-68
2023/11/30 06:04:52;;;;;;;20.70;7.57;;;-0.40;99.90;;;;;;5080542;28;20084;-68
2023/11/30 06:07:18;;;;;;;34.63;7.72;;;-0.40;99.90;;;;;;5099035;28;20040;-68
2023/11/30 06:09:44;;;;;;;15.63;7.38;;;-0.40;99.90;;;;;;5103147;27;20032;-68
2023/11/30 06:12:09;;;;;;;34.38;8.45;;;-0.40;99.90;;;;;;5104223;28;20042;-68
2023/11/30 06:14:35;;;;;;;18.45;8.30;;;-0.40;99.90;;;;;;5101412;28;20118;-67
2023/11/30 06:17:01;;;;;;;50.05;19.98;;;-0.40;99.90;;;;;;5102192;28;20043;-67
2023/11/30 06:19:27;;;;;;;31.60;13.18;;;-0.40;99.90;;;;;;5086613;28;20546;-67
2023/11/30 06:21:53;;;;;;;20.63;11.23;;;-0.40;99.90;;;;;;5100822;28;20119;-67
2023/11/30 06:24:18;;;;;;;14.05;8.80;;;-0.30;99.90;;;;;;5101297;28;20373;-67
2023/11/30 06:26:44;;;;;;;20.08;8.48;;;-0.30;99.90;;;;;;5132659;27;20048;-68
2023/11/30 06:29:13;;;;;;;17.85;8.98;;;-0.30;99.90;;;;;;5102145;28;20043;-68
2023/11/30 06:31:39;;;;;;;23.50;9.18;;;-0.20;99.90;;;;;;5101121;28;20050;-67
2023/11/30 06:34:05;;;;;;;14.15;9.15;;;-0.20;99.90;;;;;;5088198;28;20042;-67
2023/11/30 06:36:31;;;;;;;17.05;9.00;;;-0.10;99.90;;;;;;5103372;28;20393;-67
2023/11/30 06:38:57;;;;;;;24.77;10.20;;;-0.10;99.90;;;;;;5097745;28;20048;-67
2023/11/30 06:41:23;;;;;;;22.13;10.38;;;-0.10;99.90;;;;;;5083439;28;20042;-67
2023/11/30 06:43:49;;;;;;;16.45;9.65;;;-0.10;99.90;;;;;;5099011;28;20043;-67
2023/11/30 06:46:22;;;;;;;32.28;11.10;;;0.00;99.90;;;;;;5101106;28;20043;-71
2023/11/30 06:48:48;;;;;;;49.05;11.73;;;0.00;99.90;;;;;;5100067;28;20055;-69
2023/11/30 06:51:14;;;;;;;26.23;11.63;;;0.10;99.90;;;;;;5100754;27;20397;-69
2023/11/30 06:53:40;;;;;;;79.82;13.57;;;0.10;99.90;;;;;;5098935;28;20047;-69
2023/11/30 06:56:08;;;;;;;86.68;13.43;;;0.20;99.90;;;;;;5099898;27;20035;-69
2023/11/30 06:58:34;;;;;;;128.80;14.98;;;0.20;99.90;;;;;;5104820;28;20067;-69
2023/11/30 07:01:00;;;;;;;111.55;14.15;;;0.30;99.90;;;;;;5099959;28;20079;-69
2023/11/30 07:03:28;;;;;;;77.25;12.45;;;0.30;99.90;;;;;;5101298;27;20036;-69
2023/11/30 07:05:54;;;;;;;143.65;14.50;;;0.30;99.90;;;;;;5096470;28;20044;-69
2023/11/30 07:08:19;;;;;;;125.78;13.50;;;0.40;99.90;;;;;;5100074;28;20054;-69
2023/11/30 07:10:46;;;;;;;83.95;11.68;;;0.30;99.90;;;;;;5098879;27;20039;-69
2023/11/30 07:13:12;;;;;;;92.68;12.52;;;0.30;99.90;;;;;;5099236;28;20374;-69
2023/11/30 07:15:37;;;;;;;126.80;12.23;;;0.30;99.90;;;;;;5100245;28;20506;-69
2023/11/30 07:18:03;;;;;;;67.07;11.52;;;0.40;99.90;;;;;;5095483;27;20036;-69
2023/11/30 07:20:29;;;;;;;90.80;11.40;;;0.40;99.90;;;;;;5098908;28;20434;-70
2023/11/30 07:22:56;;;;;;;109.07;11.93;;;0.40;99.90;;;;;;5098204;28;20032;-70
2023/11/30 07:25:22;;;;;;;112.57;13.18;;;0.40;99.90;;;;;;5099196;28;20047;-70
2023/11/30 07:27:49;;;;;;;89.28;12.10;;;0.40;99.90;;;;;;5098609;28;20044;-70
2023/11/30 07:30:15;;;;;;;91.47;12.40;;;0.30;99.90;;;;;;5100416;28;20039;-70
2023/11/30 07:32:42;;;;;;;104.85;13.55;;;0.30;99.90;;;;;;5098284;28;20059;-70
2023/11/30 07:35:08;;;;;;;108.88;14.15;;;0.30;99.90;;;;;;5099691;28;20402;-70
2023/11/30 07:37:34;;;;;;;66.82;12.90;;;0.40;99.90;;;;;;5102116;28;20043;-70
2023/11/30 07:40:00;;;;;;;103.57;13.18;;;0.40;99.90;;;;;;5097350;27;20146;-70
2023/11/30 07:42:26;;;;;;;77.43;12.80;;;0.70;99.90;;;;;;5095849;27;20036;-70
2023/11/30 07:44:52;;;;;;;95.82;13.90;;;0.40;99.90;;;;;;5096654;27;20041;-70
2023/11/30 07:47:21;;;;;;;73.45;13.95;;;0.40;99.90;;;;;;5097519;28;20408;-70
2023/11/30 07:49:47;;;;;;;61.72;13.60;;;0.40;99.90;;;;;;5098909;28;20382;-70
2023/11/30 07:52:13;;;;;;;85.95;12.73;;;0.40;99.90;;;;;;5100491;28;20039;-70
2023/11/30 07:54:46;;;;;;;70.45;13.00;;;0.50;99.90;;;;;;5095900;28;20088;-70
2023/11/30 07:57:12;;;;;;;67.55;14.05;;;0.50;99.90;;;;;;5097208;28;20101;-69
2023/11/30 07:59:38;;;;;;;45.38;13.30;;;0.50;99.90;;;;;;5099177;27;20040;-70
2023/11/30 08:02:04;;;;;;;71.43;13.90;;;0.50;99.90;;;;;;5093852;28;20051;-69
2023/11/30 08:04:30;;;;;;;64.45;12.88;;;0.50;99.90;;;;;;5099421;28;20051;-69
2023/11/30 08:06:55;;;;;;;54.28;13.82;;;0.50;99.90;;;;;;5093451;28;20040;-69
2023/11/30 08:09:21;;;;;;;72.28;14.52;;;0.50;99.90;;;;;;5095283;28;20067;-69
2023/11/30 08:11:48;;;;;;;46.35;14.43;;;0.60;99.90;;;;;;5098482;28;20089;-70
2023/11/30 08:14:14;;;;;;;74.45;14.70;;;0.60;99.90;;;;;;5095268;28;20377;-70
2023/11/30 08:16:39;;;;;;;56.85;14.05;;;0.60;99.90;;;;;;5095320;28;20074;-70
2023/11/30 08:19:05;;;;;;;65.88;14.82;;;0.60;99.90;;;;;;5094828;28;20040;-70
2023/11/30 08:21:30;;;;;;;54.63;13.73;;;0.60;99.90;;;;;;5093925;27;20440;-70
2023/11/30 08:23:56;;;;;;;60.65;15.20;;;0.70;99.90;;;;;;5096756;28;20477;-69
2023/11/30 08:26:22;;;;;;;46.17;14.82;;;0.70;99.90;;;;;;5094594;28;20058;-69
2023/11/30 08:28:49;;;;;;;66.20;15.73;;;0.70;99.90;;;;;;5091970;28;20937;-69
2023/11/30 08:31:14;;;;;;;88.63;15.52;;;0.70;99.90;;;;;;5094552;28;20042;-69
2023/11/30 08:33:40;;;;;;;53.53;15.38;;;0.70;99.90;;;;;;5098322;28;20044;-69
2023/11/30 08:36:06;;;;;;;36.40;14.80;;;0.70;99.90;;;;;;5095519;28;20493;-69
2023/11/30 08:38:33;;;;;;;45.17;15.65;;;0.70;99.90;;;;;;5091660;27;20151;-69
2023/11/30 08:40:59;;;;;;;54.78;15.05;;;0.80;99.90;;;;;;5094218;28;20040;-69
2023/11/30 08:43:25;;;;;;;47.88;15.85;;;0.80;99.90;;;;;;5095369;27;20039;-70
2023/11/30 08:45:51;;;;;;;50.75;15.85;;;0.80;99.90;;;;;;5093774;27;20047;-70
2023/11/30 08:48:16;;;;;;;51.40;13.98;;;0.80;99.90;;;;;;5094205;28;21219;-70
2023/11/30 08:50:42;;;;;;;50.67;14.60;;;0.80;99.90;;;;;;5094609;28;20054;-70
2023/11/30 08:53:08;;;;;;;41.47;13.85;;;0.80;99.90;;;;;;5090878;28;20044;-70
2023/11/30 08:55:34;;;;;;;52.05;15.05;;;0.90;99.90;;;;;;5091769;28;20066;-70
2023/11/30 08:58:00;;;;;;;37.03;14.63;;;0.90;99.90;;;;;;5097362;28;20393;-70
2023/11/30 09:00:25;;;;;;;35.65;15.07;;;0.90;99.90;;;;;;5091349;28;20039;-70
2023/11/30 09:02:51;;;;;;;36.70;14.55;;;0.90;99.90;;;;;;5095675;28;20040;-69
2023/11/30 09:05:18;;;;;;;37.72;15.48;;;1.00;99.90;;;;;;5095614;28;20127;-69
2023/11/30 09:07:44;;;;;;;39.97;16.67;;;1.00;99.90;;;;;;5097156;28;20606;-69
2023/11/30 09:10:09;;;;;;;31.80;14.88;;;1.00;99.90;;;;;;5093126;28;20108;-69
2023/11/30 09:12:35;;;;;;;34.15;15.57;;;1.00;99.90;;;;;;5094630;28;20528;-69
2023/11/30 09:15:01;;;;;;;28.33;13.95;;;1.10;99.90;;;;;;5092264;28;20047;-69
2023/11/30 09:17:29;;;;;;;31.90;15.30;;;1.10;99.90;;;;;;5089717;28;20044;-70
2023/11/30 09:19:55;;;;;;;31.95;14.27;;;1.10;99.90;;;;;;5090562;28;20683;-70
2023/11/30 09:22:21;;;;;;;30.67;13.50;;;1.20;99.90;;;;;;5092649;28;20058;-69
2023/11/30 09:24:47;;;;;;;30.05;13.45;;;1.10;99.90;;;;;;5094144;27;20044;-70
2023/11/30 09:27:12;;;;;;;29.80;13.82;;;1.20;99.90;;;;;;5096054;28;20066;-70
2023/11/30 09:29:38;;;;;;;26.90;13.40;;;1.20;99.90;;;;;;5092693;28;20125;-70
2023/11/30 09:32:04;;;;;;;28.25;13.48;;;1.20;99.90;;;;;;5094221;28;20093;-70
2023/11/30 09:34:30;;;;;;;26.02;12.32;;;1.20;99.90;;;;;;5095837;28;20043;-70
2023/11/30 09:36:56;;;;;;;25.33;12.63;;;1.30;99.90;;;;;;5094119;28;20152;-70
2023/11/30 09:39:22;;;;;;;26.30;12.68;;;1.30;99.90;;;;;;5093259;28;20040;-70
2023/11/30 09:41:48;;;;;;;25.05;12.15;;;1.30;99.90;;;;;;5092274;28;20485;-70
2023/11/30 09:44:14;;;;;;;25.10;13.52;;;1.20;99.90;;;;;;5094259;28;20047;-70
2023/11/30 09:46:40;;;;;;;26.98;13.18;;;1.20;99.90;;;;;;5076858;28;20067;-70
2023/11/30 09:49:06;;;;;;;23.60;13.25;;;1.30;99.90;;;;;;5092186;28;20047;-70
2023/11/30 09:51:33;;;;;;;25.27;12.85;;;1.30;99.90;;;;;;5092148;28;20036;-70
2023/11/30 09:53:59;;;;;;;24.77;12.48;;;1.30;99.90;;;;;;5093212;28;20032;-70
2023/11/30 09:56:28;;;;;;;26.15;13.57;;;1.40;99.90;;;;;;5089667;28;20477;-70
2023/11/30 09:58:55;;;;;;;24.08;13.95;;;1.40;99.90;;;;;;5091882;28;20031;-70
2023/11/30 10:01:21;;;;;;;24.90;14.07;;;1.40;99.90;;;;;;5090079;28;20043;-70
2023/11/30 10:03:46;;;;;;;24.13;13.68;;;1.50;99.90;;;;;;5094262;28;20047;-70
2023/11/30 10:06:12;;;;;;;26.08;14.35;;;1.50;99.90;;;;;;5097147;28;20074;-70
2023/11/30 10:08:41;;;;;;;26.77;14.70;;;1.60;99.90;;;;;;5093635;28;20546;-70
2023/11/30 10:11:08;;;;;;;23.60;13.60;;;1.50;99.90;;;;;;5093877;28;20599;-70
2023/11/30 10:13:34;;;;;;;22.92;13.52;;;1.60;99.90;;;;;;5095102;28;20039;-70
2023/11/30 10:16:00;;;;;;;21.60;13.35;;;1.50;99.90;;;;;;5095601;28;20036;-71
2023/11/30 10:18:27;;;;;;;21.90;14.05;;;1.60;99.90;;;;;;5124965;27;20123;-70
2023/11/30 10:20:53;;;;;;;24.38;13.05;;;1.60;99.90;;;;;;5091406;28;20036;-70
2023/11/30 10:23:19;;;;;;;20.55;13.45;;;1.60;99.90;;;;;;5095327;28;20411;-70
2023/11/30 10:25:46;;;;;;;21.95;13.57;;;1.70;99.90;;;;;;5126168;27;20044;-71
2023/11/30 10:28:13;;;;;;;23.85;13.55;;;1.90;99.90;;;;;;5091254;28;20476;-70
2023/11/30 10:30:41;;;;;;;22.95;13.73;;;1.70;99.90;;;;;;5090200;28;20048;-70
2023/11/30 10:33:20;;;;;;;23.05;13.18;;;1.70;99.90;;;;;;5097482;28;20449;-70
2023/11/30 10:35:49;;;;;;;28.75;13.88;;;1.70;99.90;;;;;;5093451;28;20477;-70
2023/11/30 10:38:30;;;;;;;24.00;13.27;;;1.70;99.90;;;;;;5095376;28;20468;-70
2023/11/30 10:41:12;;;;;;;25.05;13.10;;;1.70;99.90;;;;;;5092905;28;20046;-70
2023/11/30 10:43:40;;;;;;;26.02;14.85;;;1.70;99.90;;;;;;5093195;28;20043;-71
2023/11/30 10:46:07;;;;;;;30.52;15.20;;;1.70;99.90;;;;;;5091528;28;20077;-70
2023/11/30 10:48:38;;;;;;;33.53;15.85;;;1.70;99.90;;;;;;5091287;28;20732;-70
2023/11/30 10:51:05;;;;;;;24.50;14.90;;;1.70;99.90;;;;;;5091506;28;20089;-70
2023/11/30 10:53:47;;;;;;;31.23;15.38;;;1.70;99.90;;;;;;5083089;28;20051;-70
2023/11/30 10:56:14;;;;;;;31.90;14.25;;;1.60;99.90;;;;;;5097994;27;21104;-70
2023/11/30 10:58:43;;;;;;;27.88;14.35;;;1.70;99.90;;;;;;5092151;28;20105;-70
2023/11/30 11:01:10;;;;;;;21.48;15.13;;;1.70;99.90;;;;;;5098691;28;20050;-71
2023/11/30 11:03:36;;;;;;;32.58;15.98;;;1.70;99.90;;;;;;5096999;27;20127;-71
2023/11/30 11:06:05;;;;;;;29.08;16.05;;;1.70;99.90;;;;;;5080293;28;20043;-71
2023/11/30 11:08:31;;;;;;;27.17;15.52;;;1.60;99.90;;;;;;5100447;27;20079;-71
2023/11/30 11:11:06;;;;;;;30.70;15.55;;;1.50;99.90;;;;;;5093150;28;20097;-71
2023/11/30 11:13:34;;;;;;;23.60;14.80;;;1.60;99.90;;;;;;5096107;28;20126;-71
2023/11/30 11:16:02;;;;;;;19.55;13.98;;;1.60;99.90;;;;;;5096088;28;20051;-70
2023/11/30 11:18:32;;;;;;;26.08;14.23;;;1.60;99.90;;;;;;5084457;28;20532;-71
2023/11/30 11:20:59;;;;;;;26.08;13.93;;;1.50;99.90;;;;;;5093406;28;20032;-71
2023/11/30 11:23:35;;;;;;;22.88;14.30;;;1.60;99.90;;;;;;5094912;28;20035;-71
2023/11/30 11:26:04;;;;;;;24.60;14.80;;;1.60;99.90;;;;;;5081018;28;20316;-71
2023/11/30 11:28:31;;;;;;;50.13;14.20;;;1.60;99.90;;;;;;5097969;28;20027;-71
2023/11/30 11:30:57;;;;;;;45.20;15.55;;;1.60;99.90;;;;;;5097560;28;20050;-71
2023/11/30 11:33:24;;;;;;;43.78;16.73;;;1.60;99.90;;;;;;5099670;27;20043;-71
2023/11/30 11:35:49;;;;;;;36.85;14.55;;;1.60;99.90;;;;;;5097469;28;20122;-71
2023/11/30 11:38:15;;;;;;;36.95;17.15;;;1.50;99.90;;;;;;5132489;27;20433;-71
2023/11/30 11:40:44;;;;;;;29.42;14.70;;;1.50;99.90;;;;;;5097308;28;20181;-71
2023/11/30 11:43:09;;;;;;;44.03;16.42;;;1.50;99.90;;;;;;5101640;28;20035;-71
2023/11/30 11:45:39;;;;;;;27.40;14.35;;;1.60;99.90;;;;;;5099266;28;20066;-71
2023/11/30 11:48:05;;;;;;;29.02;14.77;;;1.70;99.90;;;;;;5098820;28;20501;-71
2023/11/30 11:50:31;;;;;;;18.77;12.23;;;1.60;99.90;;;;;;5098474;28;20040;-71
2023/11/30 11:53:03;;;;;;;18.00;11.35;;;1.60;99.90;;;;;;5099209;28;20046;-71
2023/11/30 11:55:29;;;;;;;23.05;13.18;;;1.60;99.90;;;;;;5098859;28;20130;-71
2023/11/30 11:57:54;;;;;;;25.13;13.95;;;1.70;99.90;;;;;;5096724;28;20130;-71
2023/11/30 12:00:21;;;;;;;25.58;13.23;;;1.70;99.90;;;;;;5094304;28;20038;-71
2023/11/30 12:02:48;;;;;;;20.88;13.57;;;1.80;99.90;;;;;;5097717;28;20035;-71
2023/11/30 12:05:25;;;;;;;19.38;12.48;;;1.70;99.90;;;;;;5096162;28;20497;-71
2023/11/30 12:07:55;;;;;;;19.95;12.30;;;1.70;99.90;;;;;;5097794;27;20043;-71
2023/11/30 12:10:32;;;;;;;21.42;11.63;;;1.70;99.90;;;;;;5096698;27;20047;-71
2023/11/30 12:12:59;;;;;;;27.58;12.88;;;1.70;99.90;;;;;;5082137;28;20101;-71
2023/11/30 12:15:26;;;;;;;36.25;12.70;;;1.70;99.90;;;;;;5101557;27;20572;-71
2023/11/30 12:17:52;;;;;;;21.70;11.98;;;1.70;99.90;;;;;;5096499;27;20093;-71
2023/11/30 12:20:19;;;;;;;31.05;12.80;;;1.70;99.90;;;;;;5094697;27;20053;-71
2023/11/30 12:22:45;;;;;;;38.00;12.57;;;1.70;99.90;;;;;;5102198;27;20038;-71
2023/11/30 12:25:11;;;;;;;36.35;12.48;;;1.60;99.90;;;;;;5097391;27;20043;-71
2023/11/30 12:27:37;;;;;;;19.58;11.50;;;1.60;99.90;;;;;;5100549;27;20036;-71
2023/11/30 12:30:04;;;;;;;22.90;12.02;;;1.60;99.90;;;;;;5095543;28;20118;-71
2023/11/30 12:32:29;;;;;;;31.20;12.75;;;1.60;99.90;;;;;;5097191;27;20076;-71